Time,TemperatureF,DewpointF,PressureIn,WindDirection,WindDirectionDegrees,WindSpeedMPH,WindSpeedGustMPH,Humidity,HourlyPrecipIn,Conditions,Clouds,dailyrainin,SolarRadiationWatts/m^2,SoftwareType,DateUTC
2013-03-05 08:07:00,21.1,14.7,30.14,WNW,290,15.0,15.0,76,0.00,,,0.00,72,Wunderground v.1.15,2013-03-05 14:07:00,
2013-03-05 08:12:00,21.1,14.7,30.15,NNW,340,17.0,31.0,76,0.00,,,0.00,76,Wunderground v.1.15,2013-03-05 14:12:00,
2013-03-05 08:17:00,21.2,14.5,30.15,NW,318,20.0,31.0,75,0.00,,,0.00,76,Wunderground v.1.15,2013-03-05 14:17:00,
2013-03-05 08:22:00,21.2,14.5,30.15,NNW,342,10.0,37.0,75,0.00,,,0.00,79,Wunderground v.1.15,2013-03-05 14:22:00,
2013-03-05 08:27:00,21.3,14.9,30.16,NW,307,15.0,37.0,76,0.00,,,0.00,77,Wunderground v.1.15,2013-03-05 14:27:00,
2013-03-05 08:32:00,21.4,14.7,30.16,NW,311,19.0,32.0,75,0.00,,,0.00,93,Wunderground v.1.15,2013-03-05 14:32:00,
2013-03-05 08:37:00,21.5,14.8,30.16,NW,306,15.0,32.0,75,0.00,,,0.00,104,Wunderground v.1.15,2013-03-05 14:37:00,
2013-03-05 08:42:00,21.5,14.8,30.17,NW,309,26.0,30.0,75,0.00,,,0.00,120,Wunderground v.1.15,2013-03-05 14:42:00,
2013-03-05 08:47:00,21.6,14.9,30.17,NNW,338,16.0,30.0,75,0.00,,,0.00,142,Wunderground v.1.15,2013-03-05 14:47:00,
2013-03-05 08:52:00,21.9,14.9,30.17,NNW,328,18.0,28.0,74,0.00,,,0.00,144,Wunderground v.1.15,2013-03-05 14:52:00,
2013-03-05 08:57:00,22.2,15.2,30.17,WNW,299,15.0,28.0,74,0.00,,,0.00,148,Wunderground v.1.15,2013-03-05 14:57:00,
2013-03-05 09:02:00,22.4,15.4,30.17,NW,314,23.0,29.0,74,0.00,,,0.00,167,Wunderground v.1.15,2013-03-05 15:02:00,
2013-03-05 09:07:00,22.8,15.8,30.18,NW,306,13.0,29.0,74,0.00,,,0.00,174,Wunderground v.1.15,2013-03-05 15:07:00,
2013-03-05 09:12:00,22.9,15.5,30.18,North,355,19.0,30.0,73,0.00,,,0.00,220,Wunderground v.1.15,2013-03-05 15:12:00,
2013-03-05 09:17:00,23.2,15.8,30.18,WNW,292,15.0,30.0,73,0.00,,,0.00,218,Wunderground v.1.15,2013-03-05 15:17:00,
2013-03-05 09:22:00,23.0,15.3,30.19,NW,325,14.0,28.0,72,0.00,,,0.00,183,Wunderground v.1.15,2013-03-05 15:22:00,
2013-03-05 09:27:00,22.9,15.2,30.19,WNW,303,11.0,30.0,72,0.00,,,0.00,190,Wunderground v.1.15,2013-03-05 15:27:00,
2013-03-05 09:32:00,23.1,15.4,30.19,North,350,13.0,22.0,72,0.00,,,0.00,176,Wunderground v.1.15,2013-03-05 15:32:00,
2013-03-05 09:37:00,23.1,15.4,30.20,NW,304,31.0,31.0,72,0.00,,,0.00,207,Wunderground v.1.15,2013-03-05 15:37:00,
2013-03-05 09:42:00,23.1,15.1,30.19,NW,325,24.0,32.0,71,0.00,,,0.00,234,Wunderground v.1.15,2013-03-05 15:42:00,
2013-03-05 09:47:00,23.4,15.7,30.19,West,277,25.0,32.0,72,0.00,,,0.00,200,Wunderground v.1.15,2013-03-05 15:47:00,
2013-03-05 09:52:00,23.3,15.3,30.20,NW,313,11.0,32.0,71,0.00,,,0.00,221,Wunderground v.1.15,2013-03-05 15:52:00,
2013-03-05 09:57:00,23.8,15.8,30.20,NW,305,15.0,32.0,71,0.00,,,0.00,265,Wunderground v.1.15,2013-03-05 15:57:00,
2013-03-05 10:02:00,24.1,16.1,30.20,NNW,334,14.0,27.0,71,0.00,,,0.00,276,Wunderground v.1.15,2013-03-05 16:02:00,
2013-03-05 10:07:00,24.0,15.6,30.20,NNW,336,15.0,31.0,70,0.00,,,0.00,325,Wunderground v.1.15,2013-03-05 16:07:00,
2013-03-05 10:12:00,23.7,15.0,30.20,WNW,286,16.0,27.0,69,0.00,,,0.00,320,Wunderground v.1.15,2013-03-05 16:12:00,
2013-03-05 10:17:00,24.0,15.6,30.20,NW,323,11.0,28.0,70,0.00,,,0.00,332,Wunderground v.1.15,2013-03-05 16:17:00,
2013-03-05 10:22:00,24.3,15.9,30.21,NNW,346,14.0,27.0,70,0.00,,,0.00,250,Wunderground v.1.15,2013-03-05 16:22:00,
2013-03-05 10:26:00,24.2,15.5,30.22,WNW,286,23.0,32.0,69,0.00,,,0.00,287,Wunderground v.1.15,2013-03-05 16:26:00,
2013-03-05 10:31:00,24.0,15.3,30.21,WNW,300,19.0,27.0,69,0.00,,,0.00,267,Wunderground v.1.15,2013-03-05 16:31:00,
2013-03-05 10:36:00,24.5,16.1,30.22,NW,311,18.0,27.0,70,0.00,,,0.00,295,Wunderground v.1.15,2013-03-05 16:36:00,
2013-03-05 10:41:00,24.6,15.9,30.22,NW,310,14.0,31.0,69,0.00,,,0.00,283,Wunderground v.1.15,2013-03-05 16:41:00,
2013-03-05 10:46:00,24.6,15.9,30.22,NW,308,19.0,31.0,69,0.00,,,0.00,330,Wunderground v.1.15,2013-03-05 16:46:00,
2013-03-05 10:51:00,24.5,15.8,30.22,NNW,331,24.0,28.0,69,0.00,,,0.00,334,Wunderground v.1.15,2013-03-05 16:51:00,
2013-03-05 10:56:00,24.3,15.6,30.22,NW,314,22.0,28.0,69,0.00,,,0.00,301,Wunderground v.1.15,2013-03-05 16:56:00,
2013-03-05 11:01:00,24.5,16.1,30.22,NW,312,17.0,27.0,70,0.00,,,0.00,304,Wunderground v.1.15,2013-03-05 17:01:00,
2013-03-05 11:06:00,24.4,15.7,30.23,NW,317,10.0,32.0,69,0.00,,,0.00,308,Wunderground v.1.15,2013-03-05 17:06:00,
2013-03-05 11:11:00,24.3,15.6,30.23,NW,311,14.0,27.0,69,0.00,,,0.00,364,Wunderground v.1.15,2013-03-05 17:11:00,
2013-03-05 11:16:00,25.0,15.9,30.22,NW,306,12.0,29.0,68,0.00,,,0.00,441,Wunderground v.1.15,2013-03-05 17:16:00,
2013-03-05 11:21:00,25.9,16.4,30.22,NW,304,19.0,23.0,67,0.00,,,0.00,316,Wunderground v.1.15,2013-03-05 17:21:00,
2013-03-05 11:26:00,25.9,16.1,30.22,NNW,341,21.0,29.0,66,0.00,,,0.00,404,Wunderground v.1.15,2013-03-05 17:26:00,
2013-03-05 11:31:00,25.8,16.0,30.23,NW,321,14.0,22.0,66,0.00,,,0.00,406,Wunderground v.1.15,2013-03-05 17:31:00,
2013-03-05 11:36:00,26.4,16.6,30.23,NNW,346,23.0,33.0,66,0.00,,,0.00,422,Wunderground v.1.15,2013-03-05 17:36:00,
2013-03-05 11:41:00,26.7,16.5,30.23,NW,313,19.0,24.0,65,0.00,,,0.00,877,Wunderground v.1.15,2013-03-05 17:41:00,
2013-03-05 11:46:00,26.8,16.6,30.23,North,355,17.0,31.0,65,0.00,,,0.00,817,Wunderground v.1.15,2013-03-05 17:46:00,
2013-03-05 11:51:00,26.9,16.3,30.24,NNW,329,18.0,28.0,64,0.00,,,0.00,315,Wunderground v.1.15,2013-03-05 17:51:00,
2013-03-05 11:56:00,27.6,17.0,30.24,North,355,12.0,28.0,64,0.00,,,0.00,422,Wunderground v.1.15,2013-03-05 17:56:00,
2013-03-05 12:01:00,26.2,15.7,30.24,NW,317,13.0,23.0,64,0.00,,,0.00,399,Wunderground v.1.15,2013-03-05 18:01:00,
2013-03-05 12:06:00,26.8,15.9,30.24,WNW,297,15.0,28.0,63,0.00,,,0.00,281,Wunderground v.1.15,2013-03-05 18:06:00,
2013-03-05 12:11:00,27.0,16.8,30.24,NNW,329,15.0,22.0,65,0.00,,,0.00,350,Wunderground v.1.15,2013-03-05 18:11:00,
2013-03-05 12:16:00,28.2,17.2,30.24,WNW,293,9.0,29.0,63,0.00,,,0.00,346,Wunderground v.1.15,2013-03-05 18:16:00,
2013-03-05 12:21:00,27.2,15.9,30.24,NW,311,16.0,25.0,62,0.00,,,0.00,445,Wunderground v.1.15,2013-03-05 18:21:00,
2013-03-05 12:26:00,27.9,16.6,30.24,North,5,18.0,25.0,62,0.00,,,0.00,510,Wunderground v.1.15,2013-03-05 18:26:00,
2013-03-05 12:31:00,27.6,16.6,30.24,NNW,334,14.0,19.0,63,0.00,,,0.00,443,Wunderground v.1.15,2013-03-05 18:31:00,
2013-03-05 12:36:00,28.4,17.4,30.25,NW,311,18.0,23.0,63,0.00,,,0.00,322,Wunderground v.1.15,2013-03-05 18:36:00,
2013-03-05 12:41:00,28.1,16.4,30.25,NNW,336,21.0,31.0,61,0.00,,,0.00,223,Wunderground v.1.15,2013-03-05 18:41:00,
2013-03-05 12:46:00,27.6,16.3,30.24,WNW,301,12.0,31.0,62,0.00,,,0.00,299,Wunderground v.1.15,2013-03-05 18:46:00,
2013-03-05 12:51:00,29.9,19.2,30.24,NNW,338,13.0,24.0,64,0.00,,,0.00,1025,Wunderground v.1.15,2013-03-05 18:51:00,
2013-03-05 12:56:00,28.8,17.4,30.24,NNW,333,21.0,30.0,62,0.00,,,0.00,888,Wunderground v.1.15,2013-03-05 18:56:00,
2013-03-05 13:01:00,29.1,16.9,30.24,NW,325,12.0,28.0,60,0.00,,,0.00,798,Wunderground v.1.15,2013-03-05 19:01:00,
2013-03-05 13:06:00,29.9,16.9,30.24,NNW,344,15.0,28.0,58,0.00,,,0.00,803,Wunderground v.1.15,2013-03-05 19:06:00,
2013-03-05 13:11:00,29.9,17.3,30.24,WNW,285,19.0,28.0,59,0.00,,,0.00,860,Wunderground v.1.15,2013-03-05 19:11:00,
2013-03-05 13:16:00,29.4,17.2,30.24,West,280,19.0,28.0,60,0.00,,,0.00,204,Wunderground v.1.15,2013-03-05 19:16:00,
2013-03-05 13:21:00,29.7,17.5,30.24,WNW,290,10.0,20.0,60,0.00,,,0.00,796,Wunderground v.1.15,2013-03-05 19:21:00,
2013-03-05 13:26:00,29.6,16.6,30.24,NW,325,12.0,31.0,58,0.00,,,0.00,802,Wunderground v.1.15,2013-03-05 19:26:00,
2013-03-05 13:31:00,30.0,17.0,30.24,NNW,331,13.0,28.0,58,0.00,,,0.00,795,Wunderground v.1.15,2013-03-05 19:31:00,
2013-03-05 13:36:00,30.7,17.7,30.24,WNW,291,15.0,28.0,58,0.00,,,0.00,244,Wunderground v.1.15,2013-03-05 19:36:00,
2013-03-05 13:41:00,29.8,17.2,30.24,NNW,327,10.0,19.0,59,0.00,,,0.00,800,Wunderground v.1.15,2013-03-05 19:41:00,
2013-03-05 13:46:00,30.0,17.4,30.24,NW,309,15.0,23.0,59,0.00,,,0.00,745,Wunderground v.1.15,2013-03-05 19:46:00,
2013-03-05 13:51:00,30.4,17.8,30.24,North,355,20.0,24.0,59,0.00,,,0.00,700,Wunderground v.1.15,2013-03-05 19:51:00,
2013-03-05 13:56:00,29.2,16.2,30.24,NNW,335,11.0,29.0,58,0.00,,,0.00,740,Wunderground v.1.15,2013-03-05 19:56:00,
2013-03-05 14:01:00,29.8,17.2,30.24,NNW,339,14.0,21.0,59,0.00,,,0.00,754,Wunderground v.1.15,2013-03-05 20:01:00,
2013-03-05 14:06:00,30.9,17.8,30.25,NNW,346,9.0,24.0,58,0.00,,,0.00,712,Wunderground v.1.15,2013-03-05 20:06:00,
2013-03-05 14:11:00,31.1,17.6,30.24,NW,324,18.0,28.0,57,0.00,,,0.00,751,Wunderground v.1.15,2013-03-05 20:11:00,
2013-03-05 14:16:00,30.5,17.1,30.24,NW,317,14.0,28.0,57,0.00,,,0.00,696,Wunderground v.1.15,2013-03-05 20:16:00,
2013-03-05 14:21:00,31.5,18.0,30.25,NW,312,12.0,18.0,57,0.00,,,0.00,701,Wunderground v.1.15,2013-03-05 20:21:00,
2013-03-05 14:26:00,31.9,18.4,30.25,North,349,16.0,26.0,57,0.00,,,0.00,612,Wunderground v.1.15,2013-03-05 20:26:00,
2013-03-05 14:31:00,31.4,17.5,30.25,NNW,333,10.0,20.0,56,0.00,,,0.00,689,Wunderground v.1.15,2013-03-05 20:31:00,
2013-03-05 14:36:00,32.7,18.7,30.25,NNW,338,11.0,23.0,56,0.00,,,0.00,714,Wunderground v.1.15,2013-03-05 20:36:00,
2013-03-05 14:41:00,31.5,17.2,30.25,NW,311,16.0,22.0,55,0.00,,,0.00,682,Wunderground v.1.15,2013-03-05 20:41:00,
2013-03-05 14:46:00,31.0,17.5,30.25,NNW,332,17.0,25.0,57,0.00,,,0.00,664,Wunderground v.1.15,2013-03-05 20:46:00,
2013-03-05 14:51:00,31.2,17.3,30.25,North,349,13.0,20.0,56,0.00,,,0.00,640,Wunderground v.1.15,2013-03-05 20:51:00,
2013-03-05 14:56:00,32.3,18.3,30.25,WNW,290,17.0,26.0,56,0.00,,,0.00,624,Wunderground v.1.15,2013-03-05 20:56:00,
2013-03-05 15:01:00,30.8,16.5,30.25,WNW,300,13.0,23.0,55,0.00,,,0.00,120,Wunderground v.1.15,2013-03-05 21:01:00,
2013-03-05 15:06:00,30.8,17.3,30.25,NW,321,18.0,26.0,57,0.00,,,0.00,608,Wunderground v.1.15,2013-03-05 21:06:00,
2013-03-05 15:11:00,31.6,17.7,30.25,North,5,17.0,23.0,56,0.00,,,0.00,635,Wunderground v.1.15,2013-03-05 21:11:00,
2013-03-05 15:16:00,31.3,17.4,30.26,NNW,343,25.0,25.0,56,0.00,,,0.00,638,Wunderground v.1.15,2013-03-05 21:16:00,
2013-03-05 15:21:00,31.1,17.2,30.26,NW,305,17.0,20.0,56,0.00,,,0.00,650,Wunderground v.1.15,2013-03-05 21:21:00,
2013-03-05 15:26:00,31.2,16.9,30.26,NW,311,9.0,25.0,55,0.00,,,0.00,573,Wunderground v.1.15,2013-03-05 21:26:00,
2013-03-05 15:31:00,31.5,16.7,30.26,NW,311,13.0,23.0,54,0.00,,,0.00,241,Wunderground v.1.15,2013-03-05 21:31:00,
2013-03-05 15:36:00,31.5,16.7,30.26,NNW,334,14.0,23.0,54,0.00,,,0.00,563,Wunderground v.1.15,2013-03-05 21:36:00,
2013-03-05 15:41:00,32.1,17.7,30.26,WNW,297,7.0,19.0,55,0.00,,,0.00,552,Wunderground v.1.15,2013-03-05 21:41:00,
2013-03-05 15:46:00,32.0,16.8,30.26,NNW,331,16.0,20.0,53,0.00,,,0.00,522,Wunderground v.1.15,2013-03-05 21:46:00,
2013-03-05 15:51:00,31.9,17.1,30.26,NW,323,16.0,24.0,54,0.00,,,0.00,564,Wunderground v.1.15,2013-03-05 21:51:00,
2013-03-05 15:56:00,31.8,17.0,30.26,North,10,17.0,25.0,54,0.00,,,0.00,550,Wunderground v.1.15,2013-03-05 21:56:00,
2013-03-05 16:01:00,31.9,17.5,30.27,NNW,346,16.0,19.0,55,0.00,,,0.00,517,Wunderground v.1.15,2013-03-05 22:01:00,
2013-03-05 16:06:00,31.8,17.5,30.27,NW,311,10.0,19.0,55,0.00,,,0.00,142,Wunderground v.1.15,2013-03-05 22:06:00,
2013-03-05 16:11:00,31.7,17.4,30.27,NNW,333,9.0,14.0,55,0.00,,,0.00,448,Wunderground v.1.15,2013-03-05 22:11:00,
2013-03-05 16:16:00,32.4,18.0,30.27,NNW,331,19.0,19.0,55,0.00,,,0.00,436,Wunderground v.1.15,2013-03-05 22:16:00,
2013-03-05 16:21:00,32.4,18.0,30.27,NNW,327,10.0,24.0,55,0.00,,,0.00,418,Wunderground v.1.15,2013-03-05 22:21:00,
2013-03-05 16:26:00,31.3,17.0,30.27,WNW,298,9.0,25.0,55,0.00,,,0.00,410,Wunderground v.1.15,2013-03-05 22:26:00,
2013-03-05 16:31:00,31.8,17.5,30.28,NNW,344,15.0,17.0,55,0.00,,,0.00,415,Wunderground v.1.15,2013-03-05 22:31:00,
2013-03-05 16:36:00,32.1,17.7,30.28,NNW,333,18.0,26.0,55,0.00,,,0.00,399,Wunderground v.1.15,2013-03-05 22:36:00,
2013-03-05 16:41:00,31.6,17.3,30.29,NNE,22,19.0,23.0,55,0.00,,,0.00,385,Wunderground v.1.15,2013-03-05 22:41:00,
2013-03-05 16:46:00,31.1,17.6,30.29,NNW,332,15.0,28.0,57,0.00,,,0.00,364,Wunderground v.1.15,2013-03-05 22:46:00,
2013-03-05 16:51:00,30.7,17.3,30.28,NNW,331,20.0,22.0,57,0.00,,,0.00,105,Wunderground v.1.15,2013-03-05 22:51:00,
2013-03-05 16:56:00,30.1,16.7,30.28,NNW,338,11.0,22.0,57,0.00,,,0.00,288,Wunderground v.1.15,2013-03-05 22:56:00,
2013-03-05 17:01:00,30.2,17.6,30.28,NW,325,13.0,14.0,59,0.00,,,0.00,308,Wunderground v.1.15,2013-03-05 23:01:00,
2013-03-05 17:06:00,30.4,17.0,30.29,NNW,341,12.0,24.0,57,0.00,,,0.00,258,Wunderground v.1.15,2013-03-05 23:06:00,
2013-03-05 17:11:00,30.0,17.0,30.29,NW,315,15.0,17.0,58,0.00,,,0.00,236,Wunderground v.1.15,2013-03-05 23:11:00,
2013-03-05 17:16:00,29.7,16.7,30.29,North,10,11.0,22.0,58,0.00,,,0.00,214,Wunderground v.1.15,2013-03-05 23:16:00,
2013-03-05 17:21:00,29.7,17.1,30.29,NW,315,12.0,14.0,59,0.00,,,0.00,151,Wunderground v.1.15,2013-03-05 23:21:00,
2013-03-05 17:26:00,29.5,17.3,30.28,NNW,330,13.0,18.0,60,0.00,,,0.00,148,Wunderground v.1.15,2013-03-05 23:26:00,
2013-03-05 17:31:00,29.2,17.0,30.29,NNW,335,16.0,18.0,60,0.00,,,0.00,107,Wunderground v.1.15,2013-03-05 23:31:00,
2013-03-05 17:36:00,28.9,17.1,30.29,NNW,338,19.0,22.0,61,0.00,,,0.00,49,Wunderground v.1.15,2013-03-05 23:36:00,
2013-03-05 17:41:00,28.8,17.0,30.29,North,360,12.0,17.0,61,0.00,,,0.00,42,Wunderground v.1.15,2013-03-05 23:41:00,
2013-03-05 17:46:00,28.5,16.7,30.29,North,5,11.0,22.0,61,0.00,,,0.00,40,Wunderground v.1.15,2013-03-05 23:46:00,
2013-03-05 17:51:00,28.2,16.5,30.29,NNW,347,9.0,12.0,61,0.00,,,0.00,35,Wunderground v.1.15,2013-03-05 23:51:00,
2013-03-05 17:56:00,28.0,16.6,30.30,NNW,342,8.0,18.0,62,0.00,,,0.00,30,Wunderground v.1.15,2013-03-05 23:56:00,
2013-03-05 18:01:00,27.8,16.8,30.30,NNW,336,11.0,11.0,63,0.00,,,0.00,26,Wunderground v.1.15,2013-03-06 00:01:00,
2013-03-05 18:06:00,27.5,16.9,30.30,North,355,7.0,16.0,64,0.00,,,0.00,21,Wunderground v.1.15,2013-03-06 00:06:00,
2013-03-05 18:11:00,27.2,16.6,30.31,North,355,8.0,12.0,64,0.00,,,0.00,18,Wunderground v.1.15,2013-03-06 00:11:00,
2013-03-05 18:16:00,27.1,16.9,30.31,NNW,340,8.0,15.0,65,0.00,,,0.00,14,Wunderground v.1.15,2013-03-06 00:16:00,
2013-03-05 18:21:00,26.9,16.7,30.31,NNW,332,10.0,15.0,65,0.00,,,0.00,11,Wunderground v.1.15,2013-03-06 00:21:00,
2013-03-05 18:26:00,26.7,16.5,30.31,NW,325,9.0,15.0,65,0.00,,,0.00,5,Wunderground v.1.15,2013-03-06 00:26:00,
2013-03-05 18:31:00,26.5,16.7,30.31,North,349,6.0,13.0,66,0.00,,,0.00,0,Wunderground v.1.15,2013-03-06 00:31:00,
2013-03-05 18:36:00,26.2,16.7,30.31,NNE,28,6.0,13.0,67,0.00,,,0.00,0,Wunderground v.1.15,2013-03-06 00:36:00,
2013-03-05 18:41:00,25.9,16.8,30.32,North,351,6.0,8.0,68,0.00,,,0.00,0,Wunderground v.1.15,2013-03-06 00:41:00,
2013-03-05 18:46:00,25.6,16.5,30.32,NNW,345,6.0,13.0,68,0.00,,,0.00,0,Wunderground v.1.15,2013-03-06 00:46:00,
2013-03-05 18:51:00,25.4,16.6,30.32,North,350,10.0,11.0,69,0.00,,,0.00,0,Wunderground v.1.15,2013-03-06 00:51:00,
2013-03-05 19:50:00,23.5,16.4,30.34,North,360,7.0,7.0,74,0.00,,,0.00,0,Wunderground v.1.15,2013-03-06 01:50:00,
2013-03-05 19:55:00,23.4,16.6,30.33,North,5,6.0,10.0,75,0.00,,,0.00,0,Wunderground v.1.15,2013-03-06 01:55:00,
2013-03-05 20:00:00,23.3,16.5,30.33,North,360,5.0,6.0,75,0.00,,,0.00,0,Wunderground v.1.15,2013-03-06 02:00:00,
2013-03-05 20:05:00,23.0,16.3,30.33,North,360,5.0,7.0,75,0.00,,,0.00,0,Wunderground v.1.15,2013-03-06 02:05:00,
2013-03-05 20:12:00,22.7,16.3,30.33,North,5,6.0,6.0,76,0.00,,,0.00,0,Wunderground v.1.15,2013-03-06 02:12:00,
2013-03-05 20:17:00,22.6,16.2,30.33,North,5,7.0,9.0,76,0.00,,,0.00,0,Wunderground v.1.15,2013-03-06 02:17:00,
2013-03-05 20:22:00,22.4,16.3,30.33,North,5,5.0,6.0,77,0.00,,,0.00,0,Wunderground v.1.15,2013-03-06 02:22:00,
2013-03-05 20:27:00,22.2,16.1,30.33,North,355,7.0,7.0,77,0.00,,,0.00,0,Wunderground v.1.15,2013-03-06 02:27:00,
2013-03-05 20:38:00,21.7,15.9,30.33,NNW,347,3.0,3.0,78,0.00,,,0.00,0,Wunderground v.1.15,2013-03-06 02:38:00,
2013-03-05 20:43:00,21.5,15.7,30.34,NNW,346,3.0,6.0,78,0.00,,,0.00,0,Wunderground v.1.15,2013-03-06 02:43:00,
2013-03-05 20:48:00,21.3,15.8,30.34,NNW,346,4.0,4.0,79,0.00,,,0.00,0,Wunderground v.1.15,2013-03-06 02:48:00,
2013-03-05 20:53:00,21.0,15.5,30.34,NNW,348,5.0,7.0,79,0.00,,,0.00,0,Wunderground v.1.15,2013-03-06 02:53:00,
2013-03-05 20:58:00,20.7,15.5,30.34,NNW,346,3.0,4.0,80,0.00,,,0.00,0,Wunderground v.1.15,2013-03-06 02:58:00,
2013-03-05 21:03:00,20.9,15.7,30.34,NNW,346,4.0,4.0,80,0.00,,,0.00,0,Wunderground v.1.15,2013-03-06 03:03:00,
2013-03-05 21:08:00,20.8,15.6,30.34,NNW,345,5.0,6.0,80,0.00,,,0.00,0,Wunderground v.1.15,2013-03-06 03:08:00,
2013-03-05 21:13:00,20.5,15.6,30.35,NNW,338,4.0,7.0,81,0.00,,,0.00,0,Wunderground v.1.15,2013-03-06 03:13:00,
2013-03-05 21:18:00,20.4,15.5,30.34,NNW,338,2.0,7.0,81,0.00,,,0.00,0,Wunderground v.1.15,2013-03-06 03:18:00,
2013-03-05 21:23:00,20.4,15.5,30.35,NNW,339,2.0,4.0,81,0.00,,,0.00,0,Wunderground v.1.15,2013-03-06 03:23:00,
2013-03-05 21:28:00,20.4,15.8,30.35,NNW,339,2.0,4.0,82,0.00,,,0.00,0,Wunderground v.1.15,2013-03-06 03:28:00,
2013-03-05 21:33:00,20.4,15.8,30.35,NNW,339,1.0,5.0,82,0.00,,,0.00,0,Wunderground v.1.15,2013-03-06 03:33:00,
2013-03-05 21:38:00,20.4,15.8,30.35,NNW,339,2.0,5.0,82,0.00,,,0.00,0,Wunderground v.1.15,2013-03-06 03:38:00,
2013-03-05 21:43:00,19.8,15.2,30.35,NNW,339,5.0,5.0,82,0.00,,,0.00,0,Wunderground v.1.15,2013-03-06 03:43:00,
2013-03-05 21:48:00,19.2,14.6,30.36,NNW,339,1.0,5.0,82,0.00,,,0.00,0,Wunderground v.1.15,2013-03-06 03:48:00,
2013-03-05 21:53:00,18.6,14.0,30.36,NNW,339,0.0,2.0,82,0.00,,,0.00,0,Wunderground v.1.15,2013-03-06 03:53:00,
2013-03-05 21:58:00,18.4,14.1,30.36,NNW,339,1.0,4.0,83,0.00,,,0.00,0,Wunderground v.1.15,2013-03-06 03:58:00,
2013-03-05 22:03:00,18.4,14.1,30.37,NNW,339,2.0,4.0,83,0.00,,,0.00,0,Wunderground v.1.15,2013-03-06 04:03:00,
2013-03-05 22:08:00,18.4,14.4,30.38,NNW,339,2.0,4.0,84,0.00,,,0.00,0,Wunderground v.1.15,2013-03-06 04:08:00,
2013-03-05 22:13:00,18.2,14.2,30.38,NNW,339,1.0,3.0,84,0.00,,,0.00,0,Wunderground v.1.15,2013-03-06 04:13:00,
2013-03-05 22:18:00,18.0,14.0,30.38,NNW,339,1.0,4.0,84,0.00,,,0.00,0,Wunderground v.1.15,2013-03-06 04:18:00,
2013-03-05 22:23:00,17.8,13.8,30.38,NNW,339,1.0,4.0,84,0.00,,,0.00,0,Wunderground v.1.15,2013-03-06 04:23:00,
2013-03-05 22:28:00,17.6,13.6,30.38,NNW,339,0.0,4.0,84,0.00,,,0.00,0,Wunderground v.1.15,2013-03-06 04:28:00,
2013-03-05 22:33:00,17.5,13.5,30.37,NNW,339,0.0,1.0,84,0.00,,,0.00,0,Wunderground v.1.15,2013-03-06 04:33:00,
2013-03-05 22:38:00,17.5,13.5,30.37,NNW,339,0.0,1.0,84,0.00,,,0.00,0,Wunderground v.1.15,2013-03-06 04:38:00,
2013-03-05 22:43:00,17.5,13.8,30.37,NNW,339,0.0,1.0,85,0.00,,,0.00,0,Wunderground v.1.15,2013-03-06 04:43:00,
2013-03-05 22:48:00,17.4,13.7,30.38,NNW,339,0.0,1.0,85,0.00,,,0.00,0,Wunderground v.1.15,2013-03-06 04:48:00,
2013-03-05 22:53:00,17.2,13.5,30.38,NNW,339,1.0,3.0,85,0.00,,,0.00,0,Wunderground v.1.15,2013-03-06 04:53:00,
2013-03-05 22:58:00,17.2,13.5,30.37,NNW,339,1.0,3.0,85,0.00,,,0.00,0,Wunderground v.1.15,2013-03-06 04:58:00,
2013-03-05 23:00:00,17.2,13.5,30.37,NNW,339,1.0,1.0,85,0.00,,,0.00,0,Wunderground v.1.15,2013-03-06 05:00:00,
2013-03-05 23:05:00,17.0,13.3,30.38,NNW,339,2.0,3.0,85,0.00,,,0.00,0,Wunderground v.1.15,2013-03-06 05:05:00,
2013-03-05 23:10:00,16.8,13.1,30.38,NNW,339,0.0,1.0,85,0.00,,,0.00,0,Wunderground v.1.15,2013-03-06 05:10:00,
2013-03-05 23:15:00,16.6,12.9,30.38,NNW,339,2.0,2.0,85,0.00,,,0.00,0,Wunderground v.1.15,2013-03-06 05:15:00,
2013-03-05 23:20:00,16.4,12.7,30.37,NNW,339,1.0,1.0,85,0.00,,,0.00,0,Wunderground v.1.15,2013-03-06 05:20:00,
2013-03-05 23:25:00,16.4,12.9,30.37,NNW,339,2.0,3.0,86,0.00,,,0.00,0,Wunderground v.1.15,2013-03-06 05:25:00,
2013-03-05 23:30:00,16.4,12.9,30.37,NNW,339,1.0,2.0,86,0.00,,,0.00,0,Wunderground v.1.15,2013-03-06 05:30:00,
2013-03-05 23:35:00,16.3,12.8,30.37,NNW,339,3.0,4.0,86,0.00,,,0.00,0,Wunderground v.1.15,2013-03-06 05:35:00,
2013-03-05 23:40:00,16.3,12.8,30.37,NNW,339,2.0,2.0,86,0.00,,,0.00,0,Wunderground v.1.15,2013-03-06 05:40:00,
2013-03-05 23:45:00,16.0,12.6,30.37,NNW,339,0.0,3.0,86,0.00,,,0.00,0,Wunderground v.1.15,2013-03-06 05:45:00,
2013-03-05 23:50:00,15.7,12.3,30.37,NNW,339,0.0,1.0,86,0.00,,,0.00,0,Wunderground v.1.15,2013-03-06 05:50:00,
2013-03-05 23:55:00,15.2,11.5,30.37,NNW,339,1.0,1.0,85,0.00,,,0.00,0,Wunderground v.1.15,2013-03-06 05:55:00,